Time;durP1;ratioP1;P1;durP2;ratioP2;P2;SDS_P1;SDS_P2;PMS_P1;PMS_P2;Temp;Humidity;BMP_temperature;BMP_pressure;BME280_temperature;BME280_humidity;BME280_pressure;Samples;Min_cycle;Max_cycle;Signal;HPM_P1;HPM_P2
2022/09/03 00:00:04;;;;;;;5.50;2.00;;;16.00;93.30;;;;;;5025816;28;20021;-62
2022/09/03 00:02:58;;;;;;;6.50;1.98;;;15.80;93.70;;;;;;5031214;28;20057;-62
2022/09/03 00:05:55;;;;;;;6.28;2.00;;;15.70;94.00;;;;;;5029713;28;20025;-62
2022/09/03 00:08:49;;;;;;;5.35;2.00;;;15.70;94.20;;;;;;5029668;28;20647;-62
2022/09/03 00:11:20;;;;;;;6.47;1.90;;;15.60;94.60;;;;;;5025002;28;20488;-62
2022/09/03 00:14:27;;;;;;;5.20;2.10;;;15.50;94.80;;;;;;5033671;28;20029;-61
2022/09/03 00:17:07;;;;;;;7.25;2.30;;;15.40;95.00;;;;;;5032269;28;20040;-61
2022/09/03 00:19:37;;;;;;;6.53;2.03;;;15.50;95.00;;;;;;5032842;28;20076;-61
2022/09/03 00:22:11;;;;;;;5.32;2.00;;;15.50;95.10;;;;;;5033905;28;20449;-62
2022/09/03 00:24:40;;;;;;;6.07;2.20;;;15.50;95.20;;;;;;5046532;28;20025;-61
2022/09/03 00:27:13;;;;;;;4.80;1.90;;;15.40;95.50;;;;;;5033028;28;20497;-62
2022/09/03 00:29:46;;;;;;;6.10;2.00;;;15.40;95.50;;;;;;5032813;28;20075;-61
2022/09/03 00:32:41;;;;;;;7.60;2.17;;;15.40;95.70;;;;;;5032451;28;20061;-62
2022/09/03 00:35:27;;;;;;;5.10;2.00;;;15.40;95.80;;;;;;5028092;28;20496;-61
2022/09/03 00:37:54;;;;;;;4.70;1.95;;;15.30;95.90;;;;;;5027775;28;20026;-61
2022/09/03 00:40:53;;;;;;;4.90;1.92;;;15.40;95.70;;;;;;5024479;28;20093;-62
2022/09/03 00:43:31;;;;;;;4.78;2.05;;;15.50;95.60;;;;;;5027706;28;20037;-62
2022/09/03 00:46:25;;;;;;;5.80;1.77;;;15.60;95.40;;;;;;5041868;28;20061;-61
2022/09/03 00:49:09;;;;;;;4.45;1.75;;;15.60;95.30;;;;;;5033526;28;20017;-62
2022/09/03 00:51:49;;;;;;;3.70;1.60;;;15.60;95.30;;;;;;5029140;28;20090;-61
2022/09/03 00:54:18;;;;;;;;;;;15.60;95.50;;;;;;5029327;28;20025;-62
2022/09/03 00:57:01;;;;;;;4.38;1.75;;;15.70;95.30;;;;;;5033166;28;19905;-62
2022/09/03 00:59:55;;;;;;;6.65;2.90;;;15.70;95.20;;;;;;5031398;28;20135;-61
2022/09/03 01:02:28;;;;;;;6.35;1.92;;;15.70;95.10;;;;;;5026126;28;20029;-61
2022/09/03 01:05:21;;;;;;;7.40;1.80;;;15.80;95.00;;;;;;5029434;28;20377;-61
2022/09/03 01:08:02;;;;;;;5.47;2.10;;;15.80;94.80;;;;;;5021769;28;20033;-61
2022/09/03 01:10:31;;;;;;;5.50;1.90;;;15.80;95.00;;;;;;5022364;28;20021;-61
2022/09/03 01:13:07;;;;;;;6.15;1.90;;;15.80;95.00;;;;;;5028262;28;20032;-61
2022/09/03 01:16:07;;;;;;;5.72;2.00;;;15.80;95.00;;;;;;5028914;28;20040;-61
2022/09/03 01:18:33;;;;;;;5.20;2.00;;;15.80;95.00;;;;;;5023740;28;20476;-61
2022/09/03 01:21:17;;;;;;;4.53;1.80;;;15.80;95.20;;;;;;5025988;28;20056;-62
2022/09/03 01:23:42;;;;;;;10.20;2.05;;;15.80;95.20;;;;;;5024798;28;20033;-62
2022/09/03 01:26:23;;;;;;;6.40;1.80;;;15.70;95.30;;;;;;5027717;28;20036;-61
2022/09/03 01:29:06;;;;;;;11.52;2.03;;;15.60;95.50;;;;;;5029661;28;20489;-61
2022/09/03 01:31:35;;;;;;;5.28;2.00;;;15.60;95.40;;;;;;5024634;28;20053;-62
2022/09/03 01:34:07;;;;;;;4.22;1.80;;;15.60;95.40;;;;;;5025193;28;20068;-62
2022/09/03 01:36:47;;;;;;;6.10;2.00;;;15.60;95.60;;;;;;5027532;28;20045;-61
2022/09/03 01:39:27;;;;;;;5.25;1.92;;;15.60;95.60;;;;;;5041398;28;20465;-61
2022/09/03 01:42:18;;;;;;;4.18;1.70;;;15.60;95.80;;;;;;5026581;28;20037;-61
2022/09/03 01:44:59;;;;;;;5.78;2.10;;;15.60;95.90;;;;;;5026723;28;20454;-63
2022/09/03 01:47:50;;;;;;;4.60;1.90;;;15.60;95.70;;;;;;5024496;28;20030;-61
2022/09/03 01:50:25;;;;;;;6.68;1.88;;;15.50;95.90;;;;;;5029748;28;20045;-62
2022/09/03 01:53:03;;;;;;;4.63;1.80;;;15.50;96.10;;;;;;5029711;28;20030;-61
2022/09/03 01:55:39;;;;;;;5.30;2.00;;;15.50;96.20;;;;;;5029599;28;20034;-62
2022/09/03 01:58:18;;;;;;;8.40;1.90;;;15.40;96.30;;;;;;5044463;28;20033;-61
2022/09/03 02:00:55;;;;;;;4.70;1.88;;;15.30;96.70;;;;;;5026009;28;20025;-62
2022/09/03 02:03:23;;;;;;;6.25;2.00;;;15.20;97.00;;;;;;5024980;28;20057;-62
2022/09/03 02:05:51;;;;;;;5.03;1.83;;;15.10;97.00;;;;;;5028709;28;20025;-62
2022/09/03 02:08:18;;;;;;;6.78;2.50;;;15.20;97.20;;;;;;5029110;28;20020;-61
2022/09/03 02:10:52;;;;;;;7.45;1.98;;;15.20;96.90;;;;;;5025492;28;20026;-61
2022/09/03 02:13:25;;;;;;;5.20;1.80;;;15.10;97.20;;;;;;5028969;28;20081;-61
2022/09/03 02:15:52;;;;;;;3.97;1.70;;;15.10;97.20;;;;;;5032659;28;20017;-61
2022/09/03 02:18:29;;;;;;;4.40;1.85;;;15.00;97.80;;;;;;5024530;28;20021;-62
2022/09/03 02:20:58;;;;;;;5.95;2.10;;;14.80;98.00;;;;;;5026519;28;20038;-62
2022/09/03 02:23:25;;;;;;;4.85;2.00;;;14.60;98.40;;;;;;5027648;28;20496;-62
2022/09/03 02:26:00;;;;;;;4.85;2.00;;;14.40;99.50;;;;;;5027413;28;20053;-61
2022/09/03 02:28:28;;;;;;;5.00;1.90;;;14.50;99.50;;;;;;5025316;28;20087;-62
2022/09/03 02:30:53;;;;;;;5.00;1.92;;;14.40;99.70;;;;;;5027370;28;20330;-61
2022/09/03 02:33:19;;;;;;;4.72;2.00;;;14.20;99.90;;;;;;5027094;28;20025;-61
2022/09/03 02:35:46;;;;;;;6.90;2.30;;;14.00;99.90;;;;;;5029537;28;20017;-61
2022/09/03 02:38:21;;;;;;;4.88;2.08;;;14.00;99.90;;;;;;5030960;28;20039;-61
2022/09/03 02:40:47;;;;;;;7.18;2.13;;;14.20;99.90;;;;;;5024425;28;20022;-62
2022/09/03 02:43:33;;;;;;;6.18;1.90;;;14.30;99.90;;;;;;5024552;28;20385;-61
2022/09/03 02:46:06;;;;;;;6.30;2.00;;;14.30;99.90;;;;;;5025939;28;20068;-61
2022/09/03 02:48:32;;;;;;;7.55;2.03;;;14.40;99.90;;;;;;5043506;28;20060;-61
2022/09/03 02:50:58;;;;;;;6.30;2.20;;;14.40;99.90;;;;;;5029521;28;20385;-61
2022/09/03 02:53:27;;;;;;;5.38;2.10;;;14.40;99.90;;;;;;5028796;28;20030;-62
2022/09/03 02:55:56;;;;;;;4.93;2.10;;;14.20;99.90;;;;;;5023150;28;20024;-62
2022/09/03 02:58:21;;;;;;;6.05;2.05;;;14.10;99.90;;;;;;5028045;28;20044;-62
2022/09/03 03:00:48;;;;;;;4.97;1.98;;;13.90;99.90;;;;;;5043220;28;20026;-62
2022/09/03 03:03:13;;;;;;;6.25;2.03;;;13.80;99.90;;;;;;5028892;28;20749;-61
2022/09/03 03:05:57;;;;;;;5.18;1.98;;;13.70;99.90;;;;;;5028042;28;20030;-61
2022/09/03 03:08:26;;;;;;;5.07;2.00;;;13.50;99.90;;;;;;5024068;28;20063;-61
2022/09/03 03:10:57;;;;;;;7.75;2.10;;;13.40;99.90;;;;;;5039906;28;20014;-61
2022/09/03 03:13:26;;;;;;;5.97;2.40;;;13.30;99.90;;;;;;5027615;28;20022;-61
2022/09/03 03:15:56;;;;;;;6.10;1.97;;;13.20;99.90;;;;;;5027322;28;20014;-61
2022/09/03 03:18:22;;;;;;;6.07;2.22;;;13.20;99.90;;;;;;5035903;28;20025;-62
2022/09/03 03:20:48;;;;;;;4.85;2.03;;;13.10;99.90;;;;;;5026703;28;20040;-61
2022/09/03 03:23:14;;;;;;;4.72;2.00;;;13.10;99.90;;;;;;5027144;28;20025;-61
2022/09/03 03:25:39;;;;;;;5.30;2.00;;;13.00;99.90;;;;;;5043346;28;20064;-61
2022/09/03 03:28:06;;;;;;;6.03;2.72;;;13.00;99.90;;;;;;5028776;28;20017;-61
2022/09/03 03:30:32;;;;;;;4.28;1.90;;;12.90;99.90;;;;;;5028204;28;20033;-61
2022/09/03 03:32:58;;;;;;;6.03;2.10;;;12.70;99.90;;;;;;5028697;28;20385;-61
2022/09/03 03:35:24;;;;;;;9.45;2.20;;;12.60;99.90;;;;;;5028105;28;20029;-62
2022/09/03 03:37:50;;;;;;;7.30;2.40;;;12.60;99.90;;;;;;5028406;28;20535;-62
2022/09/03 03:40:16;;;;;;;5.60;2.30;;;12.50;99.90;;;;;;5024710;28;20401;-61
2022/09/03 03:42:42;;;;;;;5.63;2.30;;;12.40;99.90;;;;;;5031922;28;20369;-62
2022/09/03 03:45:11;;;;;;;6.10;2.40;;;12.20;99.90;;;;;;5032222;28;20029;-61
2022/09/03 03:47:37;;;;;;;6.28;2.33;;;12.10;99.90;;;;;;5048719;28;20036;-61
2022/09/03 03:50:03;;;;;;;4.93;2.20;;;12.00;99.90;;;;;;5032225;28;20029;-61
2022/09/03 03:52:29;;;;;;;5.78;2.40;;;11.80;99.90;;;;;;5031265;28;20084;-61
2022/09/03 03:54:55;;;;;;;5.38;2.20;;;11.80;99.90;;;;;;5032269;28;20473;-62
2022/09/03 03:57:22;;;;;;;5.82;2.20;;;11.80;99.90;;;;;;5025698;28;20025;-62
2022/09/03 03:59:48;;;;;;;5.57;2.28;;;11.80;99.90;;;;;;5032210;28;20092;-62
2022/09/03 04:02:14;;;;;;;6.30;2.53;;;11.70;99.90;;;;;;5030033;28;20125;-61
2022/09/03 04:04:40;;;;;;;6.50;2.38;;;11.70;99.90;;;;;;5030677;28;20025;-61
2022/09/03 04:07:06;;;;;;;6.85;2.55;;;11.70;99.90;;;;;;5030452;28;20036;-62
2022/09/03 04:09:32;;;;;;;8.57;2.35;;;11.60;99.90;;;;;;5031203;28;20040;-62
2022/09/03 04:11:57;;;;;;;6.50;2.63;;;11.60;99.90;;;;;;5030066;28;20025;-61
2022/09/03 04:14:26;;;;;;;6.05;2.40;;;11.50;99.90;;;;;;5028472;28;20025;-61
2022/09/03 04:16:53;;;;;;;7.28;2.50;;;11.50;99.90;;;;;;5027415;28;20033;-62
2022/09/03 04:19:19;;;;;;;6.30;2.40;;;11.50;99.90;;;;;;5030231;28;20074;-62
2022/09/03 04:21:45;;;;;;;6.70;2.55;;;11.40;99.90;;;;;;5029276;28;20037;-61
2022/09/03 04:24:10;;;;;;;7.05;2.80;;;11.40;99.90;;;;;;5030270;28;20037;-61
2022/09/03 04:26:37;;;;;;;6.03;2.60;;;11.50;99.90;;;;;;5031037;28;20060;-61
2022/09/03 04:29:07;;;;;;;5.30;2.35;;;11.60;99.90;;;;;;5030965;28;20017;-62
2022/09/03 04:31:35;;;;;;;7.22;2.17;;;11.50;99.90;;;;;;5030839;28;20021;-61
2022/09/03 04:34:01;;;;;;;5.85;2.50;;;11.40;99.90;;;;;;5031277;28;20017;-61
2022/09/03 04:36:29;;;;;;;7.97;2.70;;;11.40;99.90;;;;;;5026328;28;20057;-61
2022/09/03 04:38:58;;;;;;;5.40;2.30;;;11.20;99.90;;;;;;5030779;28;20028;-61
2022/09/03 04:41:26;;;;;;;6.05;2.70;;;11.10;99.90;;;;;;5021111;28;20033;-62
2022/09/03 04:43:54;;;;;;;6.97;2.90;;;11.30;99.90;;;;;;5034032;28;20104;-61
2022/09/03 04:46:21;;;;;;;6.57;2.50;;;11.30;99.90;;;;;;5030708;28;20025;-62
2022/09/03 04:48:49;;;;;;;7.28;2.72;;;11.40;99.90;;;;;;5027723;28;20048;-61
2022/09/03 04:51:17;;;;;;;5.53;2.38;;;11.40;99.90;;;;;;5028689;28;20061;-61
2022/09/03 04:53:45;;;;;;;5.38;2.45;;;11.40;99.90;;;;;;5025721;28;20444;-61
2022/09/03 04:56:21;;;;;;;6.10;2.47;;;11.30;99.90;;;;;;5029629;28;20385;-62
2022/09/03 04:58:48;;;;;;;8.13;2.80;;;11.30;99.90;;;;;;5024178;28;20112;-61
2022/09/03 05:01:19;;;;;;;6.45;2.70;;;11.40;99.90;;;;;;5042399;28;20064;-61
2022/09/03 05:03:46;;;;;;;6.70;2.70;;;11.40;99.90;;;;;;5026387;28;20025;-61
2022/09/03 05:06:12;;;;;;;6.72;2.67;;;11.30;99.90;;;;;;5030961;28;20205;-61
2022/09/03 05:08:39;;;;;;;6.22;2.83;;;11.30;99.90;;;;;;5041335;28;20028;-61
2022/09/03 05:11:06;;;;;;;6.72;2.60;;;11.30;99.90;;;;;;5042724;28;20060;-61
2022/09/03 05:13:33;;;;;;;6.35;2.80;;;11.30;99.90;;;;;;5029641;28;20112;-61
2022/09/03 05:16:00;;;;;;;9.07;3.40;;;11.40;99.90;;;;;;5045903;28;20014;-62
2022/09/03 05:18:26;;;;;;;6.10;2.60;;;11.50;99.90;;;;;;5031758;28;20033;-62
2022/09/03 05:21:04;;;;;;;7.72;3.00;;;11.50;99.90;;;;;;5028177;28;20050;-61
2022/09/03 05:23:31;;;;;;;8.57;2.95;;;11.50;99.90;;;;;;5029369;28;20077;-62
2022/09/03 05:25:58;;;;;;;6.20;2.60;;;11.70;99.90;;;;;;5028955;28;20484;-61
2022/09/03 05:28:29;;;;;;;6.10;2.40;;;11.80;99.90;;;;;;5032472;28;20063;-62
2022/09/03 05:31:25;;;;;;;5.80;2.40;;;11.90;99.90;;;;;;5028429;28;20084;-61
2022/09/03 05:33:57;;;;;;;7.85;2.80;;;12.00;99.90;;;;;;5025306;28;20034;-61
2022/09/03 05:36:24;;;;;;;6.20;2.75;;;12.00;99.90;;;;;;5023840;28;20026;-62
2022/09/03 05:38:53;;;;;;;5.30;2.50;;;12.10;99.90;;;;;;5022883;28;20068;-62
2022/09/03 05:41:19;;;;;;;6.10;2.53;;;12.20;99.90;;;;;;5027706;28;20021;-62
2022/09/03 05:43:57;;;;;;;7.25;2.67;;;12.30;99.90;;;;;;5027963;28;20079;-62
2022/09/03 05:46:30;;;;;;;8.13;2.80;;;12.40;99.90;;;;;;5028001;28;20024;-62
2022/09/03 05:49:00;;;;;;;6.65;2.83;;;12.40;99.90;;;;;;5029725;28;20030;-62
2022/09/03 05:51:27;;;;;;;7.93;2.78;;;12.40;99.90;;;;;;5024119;28;20511;-62
2022/09/03 05:53:54;;;;;;;6.53;2.90;;;12.50;99.90;;;;;;5028796;28;20029;-63
2022/09/03 05:56:22;;;;;;;9.75;3.63;;;12.50;99.90;;;;;;5028591;28;20022;-62
2022/09/03 05:58:51;;;;;;;8.00;3.60;;;12.50;99.90;;;;;;5028445;28;20507;-62
2022/09/03 06:01:34;;;;;;;9.10;3.25;;;12.60;99.90;;;;;;5028924;28;20650;-62
2022/09/03 06:04:08;;;;;;;7.32;3.20;;;12.60;99.90;;;;;;5022599;28;20052;-63
2022/09/03 06:06:36;;;;;;;10.15;3.10;;;12.80;99.90;;;;;;5028626;28;20393;-63
2022/09/03 06:09:07;;;;;;;6.18;2.70;;;12.90;99.90;;;;;;5025494;28;20104;-62
2022/09/03 06:11:34;;;;;;;8.05;2.80;;;13.20;99.90;;;;;;5023441;28;20433;-62
2022/09/03 06:14:04;;;;;;;7.00;2.80;;;13.40;99.90;;;;;;5027770;28;20413;-62
2022/09/03 06:16:32;;;;;;;6.20;2.80;;;13.60;99.90;;;;;;5028966;28;20034;-62
2022/09/03 06:19:01;;;;;;;7.43;2.88;;;13.70;99.90;;;;;;5028844;28;20037;-62
2022/09/03 06:21:27;;;;;;;6.90;2.83;;;13.80;99.90;;;;;;5028423;28;20045;-62
2022/09/03 06:23:57;;;;;;;8.23;2.90;;;14.00;99.90;;;;;;5024849;28;20041;-63
2022/09/03 06:26:23;;;;;;;8.73;4.13;;;14.10;99.90;;;;;;5024980;28;20529;-62
2022/09/03 06:28:49;;;;;;;10.68;3.70;;;14.30;99.90;;;;;;5022751;28;20029;-62
2022/09/03 06:31:17;;;;;;;9.07;3.03;;;14.50;99.90;;;;;;5041921;28;20033;-62
2022/09/03 06:33:43;;;;;;;6.93;2.80;;;14.80;99.90;;;;;;5025025;28;20380;-62
2022/09/03 06:36:14;;;;;;;9.00;2.80;;;14.90;99.90;;;;;;5023400;28;20026;-62
2022/09/03 06:38:40;;;;;;;6.43;2.42;;;15.00;99.90;;;;;;5040782;28;20027;-62
2022/09/03 06:41:07;;;;;;;10.87;2.50;;;15.20;99.90;;;;;;5024581;28;20041;-62
2022/09/03 06:43:36;;;;;;;6.78;2.17;;;15.40;99.90;;;;;;5025385;28;20049;-62
2022/09/03 06:46:06;;;;;;;6.47;2.30;;;15.60;99.90;;;;;;5027166;28;20013;-62
2022/09/03 06:48:34;;;;;;;5.70;1.98;;;15.80;99.90;;;;;;5026535;28;20030;-63
2022/09/03 06:51:05;;;;;;;5.38;2.20;;;16.00;99.90;;;;;;5027087;28;20103;-62
2022/09/03 06:53:33;;;;;;;6.25;2.10;;;16.20;99.90;;;;;;5024746;28;20528;-62
2022/09/03 06:56:02;;;;;;;5.80;2.20;;;16.40;99.90;;;;;;5026915;28;20025;-62
2022/09/03 06:58:41;;;;;;;5.57;2.40;;;16.50;99.90;;;;;;5026758;28;20029;-62
2022/09/03 07:01:09;;;;;;;8.18;2.30;;;16.60;99.90;;;;;;5026751;28;20136;-62
2022/09/03 07:03:37;;;;;;;6.75;2.13;;;16.70;99.90;;;;;;5026897;28;20017;-63
2022/09/03 07:06:05;;;;;;;5.10;1.90;;;16.80;99.90;;;;;;5027380;28;20036;-62
2022/09/03 07:08:33;;;;;;;5.97;1.98;;;16.90;99.90;;;;;;5025102;28;20669;-62
2022/09/03 07:11:00;;;;;;;6.93;2.00;;;17.20;99.90;;;;;;5024583;28;20044;-62
2022/09/03 07:13:26;;;;;;;7.43;2.00;;;17.40;99.90;;;;;;5017902;28;20492;-62
2022/09/03 07:16:03;;;;;;;5.55;1.88;;;17.50;99.90;;;;;;5030512;28;20447;-62
2022/09/03 07:18:30;;;;;;;4.60;1.88;;;17.60;99.90;;;;;;5027456;28;20018;-63
2022/09/03 07:21:04;;;;;;;7.55;2.13;;;17.70;99.90;;;;;;5030100;28;20045;-62
2022/09/03 07:23:30;;;;;;;7.13;2.13;;;17.80;99.90;;;;;;5026775;28;20060;-62
2022/09/03 07:25:58;;;;;;;7.50;2.22;;;18.00;99.90;;;;;;5030514;28;20435;-63
2022/09/03 07:28:24;;;;;;;5.57;2.00;;;18.20;99.90;;;;;;5031834;28;20021;-62
2022/09/03 07:30:54;;;;;;;6.22;2.00;;;18.30;99.90;;;;;;5027168;28;20026;-63
2022/09/03 07:33:20;;;;;;;6.57;2.00;;;18.50;99.90;;;;;;5031945;28;20053;-62
2022/09/03 07:35:46;;;;;;;6.88;2.30;;;18.60;99.90;;;;;;5029772;28;20381;-63
2022/09/03 07:38:18;;;;;;;6.60;1.90;;;18.80;99.90;;;;;;5030015;28;20137;-62
2022/09/03 07:40:44;;;;;;;5.05;2.00;;;19.00;99.90;;;;;;5027758;28;20072;-62
2022/09/03 07:43:10;;;;;;;4.88;1.90;;;19.20;99.90;;;;;;5029653;28;20040;-62
2022/09/03 07:45:37;;;;;;;6.28;1.85;;;19.40;99.90;;;;;;5041824;28;20056;-62
2022/09/03 07:48:03;;;;;;;7.28;1.80;;;19.50;98.80;;;;;;5028566;28;20473;-63
2022/09/03 07:50:32;;;;;;;5.35;1.70;;;19.70;97.70;;;;;;5031307;28;20017;-62
2022/09/03 07:52:58;;;;;;;6.03;1.98;;;19.90;97.70;;;;;;5026489;28;20025;-62
2022/09/03 07:55:24;;;;;;;3.90;1.70;;;20.10;96.50;;;;;;5034358;28;20040;-62
2022/09/03 07:57:55;;;;;;;6.03;1.70;;;20.20;96.40;;;;;;5040328;28;20421;-63
2022/09/03 08:00:21;;;;;;;4.47;1.70;;;20.00;96.20;;;;;;5031713;28;20248;-62
2022/09/03 08:02:46;;;;;;;5.65;1.90;;;20.00;96.30;;;;;;5029024;28;20029;-62
2022/09/03 08:05:12;;;;;;;4.68;1.80;;;20.10;96.40;;;;;;5026008;28;20381;-62
2022/09/03 08:07:38;;;;;;;3.70;1.40;;;20.30;95.90;;;;;;5042771;28;20026;-62
2022/09/03 08:10:04;;;;;;;7.13;1.60;;;20.40;95.30;;;;;;5041275;28;20315;-62
2022/09/03 08:12:31;;;;;;;4.47;1.65;;;20.60;94.80;;;;;;5024897;28;20112;-63
2022/09/03 08:14:57;;;;;;;6.28;1.73;;;20.90;94.50;;;;;;5030285;28;20116;-62
2022/09/03 08:17:23;;;;;;;6.70;1.60;;;21.30;93.70;;;;;;5029639;28;20544;-63
2022/09/03 08:19:49;;;;;;;3.85;1.52;;;21.80;94.10;;;;;;5029714;28;20436;-63
2022/09/03 08:22:15;;;;;;;4.55;1.60;;;22.50;93.10;;;;;;5023659;28;20036;-62
2022/09/03 08:24:41;;;;;;;4.60;1.60;;;23.10;92.10;;;;;;5024578;28;20448;-62
2022/09/03 08:27:07;;;;;;;8.23;1.73;;;23.30;90.50;;;;;;5028900;28;20053;-62
2022/09/03 08:29:33;;;;;;;7.03;2.10;;;23.00;90.70;;;;;;5030365;28;20044;-62
2022/09/03 08:31:59;;;;;;;5.28;1.63;;;23.00;91.00;;;;;;5026507;28;20053;-62
2022/09/03 08:34:25;;;;;;;35.88;5.28;;;23.10;90.70;;;;;;5029806;28;20430;-62
2022/09/03 08:36:51;;;;;;;6.18;1.80;;;23.30;90.80;;;;;;5024973;28;20125;-63
2022/09/03 08:39:17;;;;;;;14.93;2.58;;;23.40;90.50;;;;;;5029134;28;20021;-63
2022/09/03 08:42:07;;;;;;;5.75;1.70;;;24.30;88.50;;;;;;5026870;28;20503;-63
2022/09/03 08:44:49;;;;;;;5.65;1.45;;;25.20;86.80;;;;;;5027846;28;20028;-62
2022/09/03 08:48:02;;;;;;;7.72;2.13;;;24.90;84.90;;;;;;5027554;28;20025;-62
2022/09/03 08:50:31;;;;;;;9.68;1.60;;;24.10;85.00;;;;;;5021722;28;20044;-62
2022/09/03 08:53:17;;;;;;;4.57;1.55;;;23.70;87.50;;;;;;5031300;28;20033;-62
2022/09/03 08:55:53;;;;;;;7.47;1.70;;;24.10;86.70;;;;;;5027579;28;20402;-63
2022/09/03 08:58:28;;;;;;;5.40;1.48;;;24.90;83.60;;;;;;5028432;28;20103;-63
2022/09/03 09:01:02;;;;;;;7.80;1.73;;;25.20;84.10;;;;;;5028531;28;20033;-62
2022/09/03 09:03:34;;;;;;;4.28;1.60;;;25.00;83.50;;;;;;5029312;28;20034;-63
2022/09/03 09:06:24;;;;;;;3.90;1.60;;;25.00;82.60;;;;;;5043033;28;20029;-62
2022/09/03 09:09:00;;;;;;;6.45;1.80;;;25.20;82.80;;;;;;5024927;28;20084;-63
2022/09/03 09:11:38;;;;;;;4.57;1.60;;;25.50;82.70;;;;;;5022075;28;20436;-62
2022/09/03 09:14:57;;;;;;;5.13;1.70;;;26.20;80.90;;;;;;5028850;28;20414;-62
2022/09/03 09:17:29;;;;;;;10.20;1.75;;;26.90;79.90;;;;;;4985998;28;20038;-63
2022/09/03 09:20:10;;;;;;;4.43;1.50;;;27.20;78.50;;;;;;5024474;28;20064;-62
2022/09/03 09:22:51;;;;;;;6.32;1.70;;;27.10;79.00;;;;;;5027343;28;20080;-62
2022/09/03 09:25:23;;;;;;;8.25;2.33;;;27.40;78.70;;;;;;5026429;28;20025;-62
2022/09/03 09:27:58;;;;;;;5.78;1.95;;;27.50;78.10;;;;;;5023351;28;20027;-63
2022/09/03 09:30:24;;;;;;;5.72;1.83;;;27.50;77.50;;;;;;5024174;28;20343;-62
2022/09/03 09:32:50;;;;;;;6.45;1.88;;;27.30;77.50;;;;;;5025574;28;20104;-62
2022/09/03 09:35:17;;;;;;;4.65;1.90;;;27.60;78.00;;;;;;5022549;28;20100;-63
2022/09/03 09:37:55;;;;;;;7.03;2.08;;;27.40;77.60;;;;;;5025137;28;20045;-63
2022/09/03 09:40:31;;;;;;;9.10;1.83;;;26.70;77.90;;;;;;5024414;28;20117;-63
2022/09/03 09:43:09;;;;;;;5.20;1.80;;;26.70;78.60;;;;;;5024813;28;20348;-62
2022/09/03 09:45:36;;;;;;;5.10;1.90;;;27.10;78.10;;;;;;5026743;28;20022;-62
2022/09/03 09:48:09;;;;;;;5.95;1.90;;;27.60;77.00;;;;;;5028998;28;20029;-62
2022/09/03 09:50:35;;;;;;;6.75;2.20;;;27.90;77.60;;;;;;5028249;28;20022;-62
2022/09/03 09:53:13;;;;;;;4.60;1.80;;;27.50;77.50;;;;;;5028421;28;20104;-64
2022/09/03 09:55:59;;;;;;;6.53;1.77;;;27.60;76.80;;;;;;5025439;28;20037;-64
2022/09/03 09:58:29;;;;;;;10.57;2.33;;;27.90;77.20;;;;;;5026182;28;20025;-64
2022/09/03 10:01:10;;;;;;;5.13;2.00;;;28.20;76.60;;;;;;5024883;28;20040;-64
2022/09/03 10:03:55;;;;;;;5.05;1.83;;;28.40;76.10;;;;;;5024413;28;20037;-64
2022/09/03 10:09:25;;;;;;;5.15;1.88;;;28.50;75.80;;;;;;5028537;28;20040;-65
2022/09/03 10:12:23;;;;;;;4.30;1.80;;;28.30;75.40;;;;;;5025175;28;20396;-65
2022/09/03 10:15:17;;;;;;;5.60;1.85;;;29.40;74.90;;;;;;5027749;28;20386;-64
2022/09/03 10:18:13;;;;;;;5.13;1.70;;;29.90;73.90;;;;;;5030238;28;20461;-65
2022/09/03 10:20:43;;;;;;;5.45;1.77;;;30.90;72.20;;;;;;5022996;28;20041;-65
2022/09/03 10:23:22;;;;;;;7.60;1.90;;;31.10;70.80;;;;;;5030807;28;20440;-65
2022/09/03 10:26:06;;;;;;;4.68;1.60;;;30.80;71.10;;;;;;5028667;28;20105;-65
2022/09/03 10:28:39;;;;;;;6.22;1.63;;;30.80;71.20;;;;;;5023251;28;20112;-64
2022/09/03 10:31:14;;;;;;;4.97;1.90;;;30.20;71.10;;;;;;5028368;28;20388;-64
2022/09/03 10:33:48;;;;;;;5.93;2.10;;;30.50;71.20;;;;;;5026132;28;20029;-64
2022/09/03 10:36:32;;;;;;;4.65;1.85;;;30.70;70.20;;;;;;5030812;28;20013;-64
2022/09/03 10:39:21;;;;;;;7.03;1.88;;;31.00;70.30;;;;;;5025108;28;20033;-64
2022/09/03 10:41:58;;;;;;;5.72;1.80;;;31.40;69.30;;;;;;5025454;28;20044;-64
2022/09/03 10:44:59;;;;;;;7.57;1.88;;;31.30;69.80;;;;;;5027907;28;20417;-64
2022/09/03 10:47:25;;;;;;;5.70;2.00;;;30.70;70.20;;;;;;5030558;28;20080;-64
2022/09/03 10:50:15;;;;;;;5.18;1.65;;;30.90;69.70;;;;;;5032299;28;20028;-65
2022/09/03 10:52:59;;;;;;;5.50;1.70;;;30.80;70.00;;;;;;5034986;28;20053;-65
2022/09/03 10:55:51;;;;;;;6.13;1.92;;;31.20;70.40;;;;;;5034815;28;20049;-65
2022/09/03 10:58:42;;;;;;;4.65;1.50;;;31.40;68.60;;;;;;5030776;28;20041;-66
2022/09/03 11:01:45;;;;;;;7.70;3.05;;;32.00;67.40;;;;;;5034256;28;20424;-65
2022/09/03 11:04:30;;;;;;;7.30;2.05;;;32.60;67.50;;;;;;5028934;28;20101;-65
2022/09/03 11:07:04;;;;;;;6.95;2.08;;;32.30;68.30;;;;;;5033228;28;20018;-65
2022/09/03 11:09:37;;;;;;;6.18;2.17;;;31.50;68.10;;;;;;5030244;28;20392;-65
2022/09/03 11:12:20;;;;;;;7.03;2.25;;;31.80;69.00;;;;;;5021904;28;20021;-65
2022/09/03 11:14:55;;;;;;;5.43;2.03;;;31.30;68.60;;;;;;5027284;28;20022;-65
2022/09/03 11:17:28;;;;;;;7.47;2.28;;;31.70;69.10;;;;;;5029129;28;20060;-65
2022/09/03 11:20:19;;;;;;;9.57;2.08;;;32.30;67.70;;;;;;5038401;28;20092;-65
2022/09/03 11:22:47;;;;;;;8.63;2.10;;;32.70;67.50;;;;;;5026641;28;20497;-65
2022/09/03 11:25:16;;;;;;;7.85;2.20;;;30.90;69.90;;;;;;5026750;28;20022;-64
2022/09/03 11:27:41;;;;;;;6.73;2.20;;;29.90;71.30;;;;;;5027228;28;20096;-64
2022/09/03 11:30:31;;;;;;;5.25;2.03;;;29.30;71.90;;;;;;5044258;28;20660;-65
2022/09/03 11:33:06;;;;;;;;;;;29.40;71.30;;;;;;5032594;28;20024;-65
2022/09/03 11:35:31;;;;;;;7.13;1.98;;;29.30;73.00;;;;;;5031518;28;20360;-65
2022/09/03 11:38:01;;;;;;;10.45;2.28;;;29.70;72.40;;;;;;5032679;28;20021;-64
2022/09/03 11:40:36;;;;;;;7.40;2.20;;;29.80;71.70;;;;;;5030262;28;20539;-65
2022/09/03 11:43:24;;;;;;;8.45;2.30;;;29.60;72.10;;;;;;5032058;28;20439;-65
2022/09/03 11:46:11;;;;;;;6.65;2.10;;;30.30;71.70;;;;;;5031962;28;20044;-65
2022/09/03 11:48:45;;;;;;;6.20;1.92;;;31.80;69.10;;;;;;5032800;28;20073;-65
2022/09/03 11:51:36;;;;;;;6.93;1.95;;;31.80;68.50;;;;;;5044074;28;20048;-65
2022/09/03 11:54:06;;;;;;;6.47;2.22;;;31.00;69.20;;;;;;5030848;28;20022;-65
2022/09/03 11:56:33;;;;;;;7.20;2.00;;;31.30;68.60;;;;;;5030726;28;20056;-65
2022/09/03 11:59:12;;;;;;;10.15;2.42;;;31.20;69.70;;;;;;5031761;28;20025;-65
2022/09/03 12:01:51;;;;;;;4.93;1.80;;;31.00;69.10;;;;;;5029711;28;20412;-65
2022/09/03 12:04:20;;;;;;;;;;;30.50;68.30;;;;;;5027051;28;20033;-65
2022/09/03 12:07:10;;;;;;;7.57;1.92;;;31.20;70.10;;;;;;5020842;28;19908;-65
2022/09/03 12:09:57;;;;;;;4.90;1.90;;;31.70;68.90;;;;;;5025711;28;20020;-64
2022/09/03 12:12:53;;;;;;;5.88;2.25;;;30.90;68.00;;;;;;5025899;28;20029;-64
2022/09/03 12:15:34;;;;;;;8.05;2.05;;;29.80;69.10;;;;;;5026389;28;20487;-64
2022/09/03 12:18:19;;;;;;;14.13;1.90;;;28.70;70.80;;;;;;5024005;28;20029;-64
2022/09/03 12:21:01;;;;;;;7.45;2.28;;;28.20;71.50;;;;;;5042705;28;20049;-64
2022/09/03 12:23:27;;;;;;;7.38;2.28;;;27.50;72.80;;;;;;5026362;28;20045;-65
2022/09/03 12:25:52;;;;;;;5.15;2.25;;;27.40;73.40;;;;;;5026945;28;20278;-65
2022/09/03 12:28:22;;;;;;;5.20;2.05;;;27.10;73.70;;;;;;5032726;28;20479;-64
2022/09/03 12:30:52;;;;;;;;;;;27.30;73.30;;;;;;5026773;28;20059;-64
2022/09/03 12:33:21;;;;;;;5.95;2.10;;;27.30;73.60;;;;;;5031135;28;19916;-64
2022/09/03 12:35:58;;;;;;;8.25;2.10;;;28.30;72.50;;;;;;5025965;28;20029;-64
2022/09/03 12:38:25;;;;;;;7.10;2.20;;;29.40;71.20;;;;;;5027213;28;20109;-64
2022/09/03 12:40:51;;;;;;;5.35;1.90;;;31.20;69.90;;;;;;5023597;28;20018;-65
2022/09/03 12:43:17;;;;;;;6.97;1.98;;;32.40;67.90;;;;;;5032387;28;20040;-65
2022/09/03 12:45:46;;;;;;;5.65;2.20;;;33.70;67.10;;;;;;5025483;28;20036;-64
2022/09/03 12:48:14;;;;;;;5.47;2.00;;;35.50;65.20;;;;;;5034747;28;20030;-65
2022/09/03 12:50:41;;;;;;;5.38;1.98;;;35.00;64.90;;;;;;5028032;28;20029;-65
2022/09/03 12:53:10;;;;;;;6.97;2.22;;;34.90;64.30;;;;;;5030977;28;20041;-64
2022/09/03 12:55:40;;;;;;;5.35;1.90;;;33.50;65.40;;;;;;5029131;28;20397;-64
2022/09/03 12:58:06;;;;;;;5.28;2.20;;;33.50;65.70;;;;;;5026940;28;20536;-65
2022/09/03 13:00:35;;;;;;;4.53;2.00;;;33.10;66.50;;;;;;5031427;28;20024;-65
2022/09/03 13:03:03;;;;;;;;;;;33.00;65.60;;;;;;5026790;28;20037;-65
2022/09/03 13:05:36;;;;;;;5.68;2.10;;;32.20;66.80;;;;;;5022924;28;19912;-65
2022/09/03 13:08:06;;;;;;;10.13;2.30;;;31.50;67.70;;;;;;5027628;28;20043;-64
2022/09/03 13:10:36;;;;;;;5.25;2.17;;;31.30;68.90;;;;;;5023672;28;20017;-65
2022/09/03 13:13:19;;;;;;;5.80;2.45;;;30.90;69.40;;;;;;5028090;28;20105;-65
2022/09/03 13:16:22;;;;;;;5.00;2.10;;;32.60;68.30;;;;;;5026796;28;20025;-65
2022/09/03 13:19:05;;;;;;;6.28;2.20;;;33.40;66.20;;;;;;5032745;28;20442;-65
2022/09/03 13:21:58;;;;;;;5.60;2.20;;;34.30;66.40;;;;;;5028344;28;20431;-65